Time;durP1;ratioP1;P1;durP2;ratioP2;P2;SDS_P1;SDS_P2;PMS_P1;PMS_P2;Temp;Humidity;BMP_temperature;BMP_pressure;BME280_temperature;BME280_humidity;BME280_pressure;Samples;Min_cycle;Max_cycle;Signal;HPM_P1;HPM_P2
2021/12/17 00:00:25;;;;;;;6.53;1.47;;;;;;;25.32;50.32;101372.78;7310274;19;128873;-34
2021/12/17 00:05:20;;;;;;;14.57;2.42;;;;;;;25.30;50.73;101374.69;7310098;19;130513;-34
2021/12/17 00:07:46;;;;;;;15.93;3.00;;;;;;;25.27;49.90;101377.56;7311419;19;129035;-32
2021/12/17 00:10:17;;;;;;;3.47;1.00;;;;;;;25.23;51.16;101371.69;7310562;19;137262;-34
2021/12/17 00:12:44;;;;;;;15.75;2.63;;;;;;;25.19;51.34;101369.41;7311776;19;129753;-35
2021/12/17 00:15:09;;;;;;;;;;;;;;;25.24;52.36;101364.63;7308418;19;130211;-35
2021/12/17 00:17:39;;;;;;;17.88;2.92;;;;;;;25.20;51.53;101371.94;7311282;19;129299;-30
2021/12/17 00:50:20;;;;;;;17.08;2.50;;;;;;;24.95;52.02;101368.69;7310702;19;128895;-33
2021/12/17 00:52:46;;;;;;;14.60;2.20;;;;;;;25.01;50.71;101378.72;7311132;19;130237;-36
2021/12/17 00:55:11;;;;;;;7.33;1.40;;;;;;;25.02;51.19;101385.69;7308895;19;130540;-31
2021/12/17 00:57:41;;;;;;;17.57;3.10;;;;;;;25.00;52.27;101383.19;7310059;19;129357;-36
2021/12/17 01:00:11;;;;;;;12.52;2.08;;;;;;;24.97;51.92;101383.41;7308208;19;130913;-35
2021/12/17 01:02:38;;;;;;;20.52;3.40;;;;;;;24.97;50.77;101377.31;7308702;19;130132;-37
2021/12/17 01:05:09;;;;;;;10.95;1.95;;;;;;;24.96;51.33;101359.81;7307959;19;130725;-37
2021/12/17 01:07:39;;;;;;;24.83;3.63;;;;;;;24.96;50.84;101362.47;7309377;19;129033;-33
2021/12/17 01:10:09;;;;;;;12.02;2.38;;;;;;;24.92;52.36;101358.41;7308776;19;129084;-36
2021/12/17 01:12:35;;;;;;;10.15;1.80;;;;;;;24.91;51.73;101370.72;7309058;19;129252;-36
2021/12/17 01:15:00;;;;;;;9.43;1.77;;;;;;;24.88;51.35;101372.72;7308289;19;130262;-34
2021/12/17 01:17:28;;;;;;;19.05;2.58;;;;;;;24.86;50.89;101379.94;7310087;19;129949;-31
2021/12/17 01:20:17;;;;;;;13.02;2.05;;;;;;;24.82;51.16;101384.59;7305247;19;130812;-39
2021/12/17 01:36:09;;;;;;;15.18;2.50;;;;;;;24.84;51.02;101369.50;7313831;19;129279;-37
2021/12/17 01:39:38;;;;;;;18.83;3.20;;;;;;;24.83;50.63;101365.19;7314270;19;157822;-37
2021/12/17 01:42:04;;;;;;;21.17;3.25;;;;;;;24.83;51.46;101367.00;7315764;19;129266;-37
2021/12/17 01:44:29;;;;;;;20.42;3.67;;;;;;;24.80;51.34;101361.97;7314894;19;129259;-37
2021/12/17 01:46:55;;;;;;;11.60;1.93;;;;;;;24.72;52.28;101356.47;7316143;19;129489;-37
2021/12/17 02:00:39;;;;;;;19.83;3.03;;;;;;;24.75;51.17;101369.38;7313365;19;130512;-36
2021/12/17 02:03:06;;;;;;;9.60;1.70;;;;;;;24.70;52.65;101372.34;7316331;19;128884;-35
2021/12/17 02:05:33;;;;;;;18.60;3.05;;;;;;;24.71;51.29;101375.84;7313444;19;129827;-36
2021/12/17 02:07:59;;;;;;;14.75;2.50;;;;;;;24.72;52.14;101374.88;7314478;19;129105;-37
2021/12/17 02:21:54;;;;;;;16.35;2.35;;;;;;;24.65;51.58;101371.00;7316735;19;129124;-35
2021/12/17 02:32:32;;;;;;;16.65;2.65;;;;;;;24.62;51.68;101366.81;7315537;19;129038;-35
2021/12/17 02:35:21;;;;;;;11.00;1.90;;;;;;;24.60;51.42;101365.25;7312027;19;129057;-35
2021/12/17 02:37:48;;;;;;;19.55;2.65;;;;;;;24.49;51.97;101345.84;7313965;19;128742;-34
2021/12/17 02:45:43;;;;;;;9.10;1.88;;;;;;;24.58;52.10;101364.53;7311666;19;128892;-34
2021/12/17 02:48:11;;;;;;;8.82;1.58;;;;;;;24.56;50.97;101367.25;7313348;19;153921;-33
2021/12/17 02:50:41;;;;;;;20.80;3.10;;;;;;;24.56;52.43;101363.81;7313866;19;129184;-30
2021/12/17 02:53:09;;;;;;;12.95;1.90;;;;;;;24.51;52.16;101360.69;7313217;19;133046;-38
2021/12/17 02:55:38;;;;;;;13.80;2.40;;;;;;;24.55;52.18;101375.28;7310561;19;128981;-37
2021/12/17 02:58:05;;;;;;;12.52;1.95;;;;;;;24.55;51.45;101370.00;7313813;19;129286;-36
2021/12/17 03:00:31;;;;;;;17.65;2.88;;;;;;;24.54;51.89;101378.88;7310314;19;129231;-37
2021/12/17 03:02:57;;;;;;;11.30;2.00;;;;;;;24.56;50.81;101376.97;7314478;19;130646;-38
2021/12/17 03:05:26;;;;;;;16.60;2.47;;;;;;;24.50;52.16;101383.50;7312299;19;128990;-40
2021/12/17 03:07:51;;;;;;;12.95;2.25;;;;;;;24.48;52.58;101379.34;7312423;19;129099;-35
2021/12/17 03:10:17;;;;;;;14.88;2.22;;;;;;;24.48;52.41;101388.88;7309789;19;158274;-36
2021/12/17 03:12:50;;;;;;;18.10;2.78;;;;;;;24.48;51.56;101390.66;7312078;19;158903;-38
2021/12/17 03:16:07;;;;;;;12.27;2.10;;;;;;;24.45;51.33;101386.50;7311622;19;129424;-36
2021/12/17 03:25:59;;;;;;;8.25;1.58;;;;;;;24.50;52.44;101388.78;7309811;19;129539;-34
2021/12/17 03:28:25;;;;;;;12.20;1.85;;;;;;;24.46;51.57;101387.34;7313159;19;129327;-38
2021/12/17 03:30:51;;;;;;;15.98;2.40;;;;;;;24.38;51.63;101382.63;7312741;19;129914;-34
2021/12/17 03:33:16;;;;;;;10.00;1.65;;;;;;;24.42;51.91;101386.72;7313544;19;130655;-33
2021/12/17 03:35:41;;;;;;;12.93;2.30;;;;;;;24.45;52.01;101375.13;7309376;19;128944;-34
2021/12/17 03:38:07;;;;;;;16.45;2.83;;;;;;;24.41;52.23;101373.69;7312348;19;129374;-37
2021/12/17 03:40:33;;;;;;;13.10;2.23;;;;;;;24.43;52.19;101377.88;7308970;19;158644;-37
2021/12/17 03:43:10;;;;;;;9.70;1.73;;;;;;;24.45;52.12;101383.88;7312726;19;130382;-37
2021/12/17 03:45:36;;;;;;;14.68;2.45;;;;;;;24.41;52.11;101385.03;7308638;19;128950;-37
2021/12/17 03:48:02;;;;;;;12.30;2.08;;;;;;;24.29;52.32;101375.47;7311728;19;129179;-41
2021/12/17 03:50:27;;;;;;;19.05;3.08;;;;;;;24.37;53.14;101383.59;7309678;19;129586;-35
2021/12/17 03:52:52;;;;;;;16.80;2.47;;;;;;;24.35;51.72;101390.75;7312096;19;129243;-35
2021/12/17 03:55:17;;;;;;;13.15;1.95;;;;;;;24.17;51.48;101386.88;7309159;19;155252;-39
2021/12/17 03:57:43;;;;;;;17.33;2.80;;;;;;;24.27;51.43;101379.97;7310420;19;153058;-36
2021/12/17 04:00:10;;;;;;;5.90;1.10;;;;;;;24.69;50.04;101375.97;7309748;19;129656;-35
2021/12/17 04:02:35;;;;;;;16.70;2.70;;;;;;;25.22;49.02;101377.09;7310879;19;130772;-36
2021/12/17 04:05:03;;;;;;;16.48;2.58;;;;;;;25.78;46.77;101375.22;7308593;19;154841;-38
2021/12/17 04:07:28;;;;;;;16.88;2.53;;;;;;;26.30;45.95;101372.66;7310449;19;129442;-35
2021/12/17 04:09:53;;;;;;;8.87;1.67;;;;;;;26.63;44.86;101370.69;7309554;19;157404;-38
2021/12/17 04:12:23;;;;;;;15.83;2.20;;;;;;;26.98;44.44;101364.25;7311854;19;130341;-39
2021/12/17 04:14:49;;;;;;;16.85;2.67;;;;;;;27.25;43.63;101353.94;7310076;19;129290;-38
2021/12/17 04:17:22;;;;;;;17.30;2.33;;;;;;;27.46;42.91;101355.56;7311510;19;129837;-38
2021/12/17 04:19:47;;;;;;;16.00;2.50;;;;;;;27.67;42.33;101347.53;7310052;19;130331;-35
2021/12/17 04:22:12;;;;;;;12.73;1.93;;;;;;;27.70;42.58;101342.81;7309580;19;156977;-37
2021/12/17 04:24:38;;;;;;;19.50;2.40;;;;;;;27.70;42.81;101347.28;7309097;19;129195;-39
2021/12/17 04:27:05;;;;;;;12.50;1.93;;;;;;;27.87;42.42;101351.88;7311222;19;129196;-38
2021/12/17 04:29:30;;;;;;;;;;;;;;;27.78;42.40;101334.22;7311935;19;130311;-35
2021/12/17 04:31:56;;;;;;;16.20;2.53;;;;;;;27.77;42.43;101332.53;7311335;19;130488;-37
2021/12/17 04:34:22;;;;;;;17.50;2.53;;;;;;;27.93;41.91;101341.59;7309731;19;128851;-37
2021/12/17 04:36:51;;;;;;;24.00;3.00;;;;;;;28.08;42.18;101336.75;7310708;19;128854;-37
2021/12/17 04:39:18;;;;;;;12.45;1.77;;;;;;;28.13;41.42;101345.13;7311303;19;131222;-37
2021/12/17 04:42:00;;;;;;;17.38;2.35;;;;;;;28.15;41.65;101340.50;7311740;19;130674;-35
2021/12/17 04:44:32;;;;;;;19.05;2.53;;;;;;;28.17;41.82;101341.19;7309785;19;129617;-38
2021/12/17 04:57:18;;;;;;;16.42;2.30;;;;;;;28.25;41.84;101337.88;7310700;19;129479;-37
2021/12/17 04:57:48;;;;;;;18.75;2.65;;;;;;;27.81;42.56;101333.94;7311376;19;129602;-37
2021/12/17 05:00:19;;;;;;;10.23;1.60;;;;;;;27.63;43.32;101340.88;7312430;19;130602;-39
2021/12/17 05:02:49;;;;;;;20.30;2.88;;;;;;;27.60;43.08;101331.38;7316985;19;130638;-35
2021/12/17 05:05:16;;;;;;;14.73;1.90;;;;;;;27.52;43.37;101333.06;7314872;19;129159;-37
2021/12/17 05:07:51;;;;;;;33.83;4.25;;;;;;;27.45;43.52;101337.22;7314786;19;129617;-38
2021/12/17 05:10:41;;;;;;;14.23;2.03;;;;;;;27.40;43.29;101339.44;7311216;19;130598;-35
2021/12/17 05:18:46;;;;;;;14.38;2.10;;;;;;;27.17;44.11;101328.22;7317062;19;130042;-38
2021/12/17 05:21:11;;;;;;;16.70;2.30;;;;;;;27.08;44.03;101325.50;7315247;19;130496;-34
2021/12/17 05:23:43;;;;;;;18.20;2.63;;;;;;;27.09;44.55;101332.47;7314952;19;129765;-37
2021/12/17 05:26:17;;;;;;;9.07;1.88;;;;;;;27.06;44.85;101324.81;7314535;19;129673;-32
2021/12/17 05:28:42;;;;;;;26.45;3.33;;;;;;;27.10;44.47;101324.44;7315905;19;129790;-32
2021/12/17 05:31:08;;;;;;;10.60;1.60;;;;;;;27.10;44.40;101336.78;7315806;19;129069;-32
2021/12/17 05:33:34;;;;;;;15.40;2.40;;;;;;;27.12;44.31;101332.22;7315922;19;129182;-43
2021/12/17 05:35:59;;;;;;;10.67;1.90;;;;;;;27.14;44.41;101335.56;7313013;19;129825;-31
2021/12/17 05:38:26;;;;;;;22.70;3.20;;;;;;;27.17;44.20;101337.94;7312719;19;154135;-32
2021/12/17 05:40:52;;;;;;;29.90;3.85;;;;;;;27.18;44.68;101329.03;7312970;19;129099;-39
2021/12/17 05:43:17;;;;;;;17.97;2.70;;;;;;;27.24;44.47;101333.78;7315990;19;130810;-31
2021/12/17 05:48:23;;;;;;;15.45;2.30;;;;;;;27.26;43.98;101340.59;7315591;19;128883;-38
2021/12/17 05:50:51;;;;;;;17.87;2.60;;;;;;;27.29;43.71;101336.91;7314973;19;130158;-33
2021/12/17 05:53:17;;;;;;;13.88;2.15;;;;;;;27.34;43.94;101355.78;7315629;19;129286;-36
2021/12/17 05:55:42;;;;;;;33.37;4.23;;;;;;;27.40;43.60;101360.56;7312601;19;130142;-37
2021/12/17 05:58:09;;;;;;;13.40;2.00;;;;;;;27.39;43.84;101348.31;7316503;19;128793;-38
2021/12/17 06:00:35;;;;;;;14.45;2.15;;;;;;;27.44;43.88;101361.94;7314794;19;129705;-37
2021/12/17 06:03:02;;;;;;;17.45;2.50;;;;;;;27.44;43.43;101354.00;7314158;19;129667;-39
2021/12/17 06:05:28;;;;;;;16.50;2.33;;;;;;;27.39;43.68;101343.03;7312665;19;129531;-38
2021/12/17 06:07:54;;;;;;;24.17;3.60;;;;;;;27.31;44.07;101340.22;7314771;19;129110;-34
2021/12/17 06:10:20;;;;;;;15.70;2.50;;;;;;;27.38;44.00;101357.22;7314091;19;158928;-36
2021/12/17 06:12:45;;;;;;;24.43;3.40;;;;;;;27.34;44.48;101355.78;7313329;19;129215;-35
2021/12/17 06:15:14;;;;;;;12.43;1.97;;;;;;;27.24;44.34;101339.06;7314362;19;129593;-37
2021/12/17 06:17:39;;;;;;;17.05;2.58;;;;;;;27.19;43.97;101339.47;7314257;19;129116;-38
2021/12/17 06:20:06;;;;;;;12.13;1.90;;;;;;;27.27;44.51;101355.47;7314217;19;129931;-37
2021/12/17 06:22:32;;;;;;;22.88;3.30;;;;;;;27.33;44.02;101343.56;7314373;19;130061;-37
2021/12/17 06:24:57;;;;;;;12.73;1.90;;;;;;;27.30;44.11;101354.41;7312052;19;129624;-38
2021/12/17 06:27:25;;;;;;;16.63;2.27;;;;;;;27.22;44.65;101348.94;7315721;19;129051;-37
2021/12/17 06:29:52;;;;;;;21.40;3.28;;;;;;;27.19;44.49;101346.56;7313766;19;129170;-37
2021/12/17 06:32:18;;;;;;;13.65;1.90;;;;;;;27.20;44.86;101353.50;7314451;19;129337;-40
2021/12/17 06:34:44;;;;;;;19.85;2.65;;;;;;;27.17;44.06;101364.34;7311451;19;129729;-32
2021/12/17 06:37:09;;;;;;;11.70;2.17;;;;;;;27.16;44.83;101367.94;7313748;19;135512;-35
2021/12/17 06:39:35;;;;;;;17.97;2.67;;;;;;;27.11;44.80;101355.13;7310215;19;155816;-35
2021/12/17 06:42:00;;;;;;;17.90;2.53;;;;;;;27.13;44.94;101355.84;7313855;19;129690;-33
2021/12/17 06:44:27;;;;;;;22.33;3.03;;;;;;;27.12;44.40;101361.25;7312607;19;129601;-36
2021/12/17 07:00:06;;;;;;;24.15;3.33;;;;;;;27.23;44.18;101358.50;7310679;19;129477;-38
2021/12/17 07:10:45;;;;;;;25.30;3.35;;;;;;;27.15;43.56;101356.56;7313726;19;129280;-37
2021/12/17 07:21:25;;;;;;;16.35;2.38;;;;;;;27.09;44.62;101340.41;7311809;19;129481;-36
2021/12/17 07:24:36;;;;;;;24.83;3.90;;;;;;;27.18;43.95;101356.28;7306180;19;130743;-37
2021/12/17 07:31:17;;;;;;;18.67;2.88;;;;;;;27.23;43.72;101359.34;7311103;19;129299;-35
2021/12/17 07:32:45;;;;;;;22.88;3.22;;;;;;;27.41;43.79;101364.84;7310192;19;130524;-38
2021/12/17 07:40:07;;;;;;;13.55;3.17;;;;;;;27.32;42.38;101357.75;7312403;19;129327;-34
2021/12/17 07:42:33;;;;;;;20.42;3.17;;;;;;;27.18;44.31;101366.84;7311916;19;130075;-36
2021/12/17 07:44:58;;;;;;;24.83;3.53;;;;;;;27.11;44.42;101385.97;7308912;19;129181;-34
2021/12/17 07:47:25;;;;;;;26.93;3.77;;;;;;;27.10;44.80;101397.50;7310475;19;155299;-39
2021/12/17 07:49:50;;;;;;;17.13;2.63;;;;;;;27.07;45.21;101395.16;7312899;19;129136;-35
2021/12/17 07:52:15;;;;;;;18.43;3.00;;;;;;;27.01;44.85;101385.13;7306833;19;158768;-37
2021/12/17 07:54:41;;;;;;;15.87;2.83;;;;;;;27.11;44.93;101402.66;7307364;19;150413;-39
2021/12/17 07:57:06;;;;;;;20.93;3.13;;;;;;;27.05;45.52;101386.50;7308091;19;154799;-37
2021/12/17 07:59:31;;;;;;;28.87;3.97;;;;;;;27.08;45.19;101386.25;7308961;19;129369;-34
2021/12/17 08:01:56;;;;;;;20.63;2.97;;;;;;;27.20;45.16;101406.31;7307213;19;158340;-35
2021/12/17 08:04:23;;;;;;;26.73;3.63;;;;;;;27.26;44.92;101395.22;7306424;19;158675;-38
2021/12/17 08:06:48;;;;;;;42.40;5.85;;;;;;;27.29;44.63;101384.44;7306492;19;129558;-39
2021/12/17 08:09:14;;;;;;;19.90;2.83;;;;;;;27.36;45.10;101396.13;7304428;19;130470;-35
2021/12/17 08:11:40;;;;;;;33.63;4.57;;;;;;;27.43;44.87;101405.19;7306238;19;130370;-37
2021/12/17 08:14:11;;;;;;;23.23;4.30;;;;;;;27.45;44.87;101396.19;7307478;19;130368;-38
2021/12/17 08:17:04;;;;;;;15.93;2.88;;;;;;;27.54;44.74;101394.50;7305538;19;129719;-38
2021/12/17 08:25:09;;;;;;;24.30;3.92;;;;;;;27.45;44.35;101384.78;7304317;19;130547;-38
2021/12/17 08:32:42;;;;;;;31.90;4.68;;;;;;;27.41;44.38;101372.78;7305783;19;129832;-38
2021/12/17 08:35:09;;;;;;;13.65;2.42;;;;;;;27.45;44.29;101374.19;7303878;19;130336;-38
2021/12/17 08:37:34;;;;;;;24.70;4.18;;;;;;;27.38;43.90;101375.69;7305739;19;129803;-38
2021/12/17 08:40:00;;;;;;;19.73;4.07;;;;;;;27.40;43.48;101385.19;7305952;19;129238;-38
2021/12/17 08:42:26;;;;;;;19.97;3.47;;;;;;;27.38;43.88;101391.56;7301171;19;158289;-36
2021/12/17 08:44:51;;;;;;;22.20;3.83;;;;;;;27.35;44.12;101383.91;7299040;19;129600;-41
2021/12/17 08:47:17;;;;;;;20.13;3.43;;;;;;;27.35;44.10;101379.47;7302656;19;154501;-38
2021/12/17 08:49:43;;;;;;;24.33;4.13;;;;;;;27.33;44.09;101391.13;7306272;19;129187;-35
2021/12/17 08:52:09;;;;;;;14.70;2.88;;;;;;;27.31;43.84;101406.25;7306065;19;130160;-34
2021/12/17 08:54:35;;;;;;;18.47;4.03;;;;;;;27.28;42.83;101415.28;7304165;19;129174;-33
2021/12/17 08:57:01;;;;;;;23.73;4.43;;;;;;;27.10;43.21;101405.44;7304550;19;155815;-33
2021/12/17 08:59:29;;;;;;;31.10;7.75;;;;;;;27.11;36.62;101409.75;7306293;19;128896;-34
2021/12/17 09:01:55;;;;;;;32.90;7.05;;;;;;;27.11;38.22;101415.03;7305930;19;130921;-37
2021/12/17 09:04:20;;;;;;;14.50;3.90;;;;;;;27.19;40.20;101421.31;7305402;19;129929;-36
2021/12/17 09:06:46;;;;;;;23.53;4.30;;;;;;;27.20;41.26;101401.03;7305278;19;129014;-35
2021/12/17 09:09:17;;;;;;;24.57;5.47;;;;;;;27.33;41.34;101401.69;7305512;19;130907;-34
2021/12/17 09:11:42;;;;;;;22.75;4.32;;;;;;;27.43;42.31;101410.47;7305462;19;130752;-32
2021/12/17 09:14:08;;;;;;;16.83;3.47;;;;;;;27.50;42.05;101403.69;7304245;19;139959;-34
2021/12/17 09:16:34;;;;;;;17.77;3.63;;;;;;;27.55;42.32;101407.59;7302970;19;154313;-34
2021/12/17 09:19:00;;;;;;;20.17;3.83;;;;;;;27.64;42.48;101411.25;7306857;19;129852;-35
2021/12/17 09:21:26;;;;;;;15.90;3.20;;;;;;;27.71;42.22;101410.56;7166606;19;2804895;-34
2021/12/17 09:23:52;;;;;;;30.43;5.60;;;;;;;27.77;42.46;101406.53;7306651;19;129491;-37
2021/12/17 09:26:18;;;;;;;20.17;3.87;;;;;;;27.74;42.76;101401.53;7305518;19;130078;-32
2021/12/17 09:28:43;;;;;;;22.60;3.93;;;;;;;27.86;42.18;101430.38;7304998;19;130319;-31
2021/12/17 09:31:12;;;;;;;11.73;2.53;;;;;;;27.91;42.86;101416.78;7308357;19;129460;-38
2021/12/17 09:33:40;;;;;;;17.90;4.07;;;;;;;27.92;42.31;101405.22;7304804;19;129988;-43
2021/12/17 09:36:06;;;;;;;13.55;3.08;;;;;;;28.06;42.92;101413.56;7303147;19;129313;-31
2021/12/17 09:38:32;;;;;;;22.43;3.93;;;;;;;28.16;42.52;101426.81;7309141;19;129078;-37
2021/12/17 09:40:57;;;;;;;24.03;4.37;;;;;;;28.17;42.46;101425.84;7307429;19;130364;-38
2021/12/17 09:43:24;;;;;;;18.10;3.60;;;;;;;28.25;41.87;101428.63;7306203;19;154359;-38
2021/12/17 09:45:49;;;;;;;24.13;4.97;;;;;;;27.91;41.98;101427.34;7305475;19;130479;-38
2021/12/17 09:48:15;;;;;;;16.07;3.67;;;;;;;27.75;42.29;101427.00;7312873;19;130474;-38
2021/12/17 09:50:40;;;;;;;17.87;4.20;;;;;;;27.65;41.57;101413.75;7314748;19;130937;-37
2021/12/17 09:53:06;;;;;;;25.10;5.23;;;;;;;27.62;42.29;101403.44;7314571;19;129051;-34
2021/12/17 09:55:31;;;;;;;24.57;5.83;;;;;;;27.40;42.54;101397.53;7313111;19;130061;-39
2021/12/17 09:57:56;;;;;;;17.17;4.33;;;;;;;27.37;42.15;101393.34;7314475;19;130107;-38
2021/12/17 10:00:25;;;;;;;13.27;3.73;;;;;;;27.30;42.10;101402.78;7313846;19;158722;-36
2021/12/17 10:02:52;;;;;;;21.92;4.90;;;;;;;27.12;42.61;101407.00;7315411;19;131385;-35
2021/12/17 10:05:22;;;;;;;18.88;4.75;;;;;;;27.11;42.34;101400.03;7313404;19;129338;-37
2021/12/17 10:07:59;;;;;;;27.08;6.40;;;;;;;27.01;43.19;101398.31;7315082;19;130224;-36
2021/12/17 10:10:39;;;;;;;17.67;3.92;;;;;;;26.94;43.08;101401.47;7313526;19;130097;-37
2021/12/17 10:13:26;;;;;;;24.08;6.50;;;;;;;26.60;37.82;101396.50;7314667;19;129352;-38
2021/12/17 10:15:58;;;;;;;28.03;6.53;;;;;;;26.64;37.22;101382.09;7311234;19;129284;-34
2021/12/17 10:18:34;;;;;;;17.15;5.47;;;;;;;26.18;37.12;101411.44;7314883;19;129329;-32
2021/12/17 10:21:03;;;;;;;28.75;7.88;;;;;;;25.72;37.52;101418.72;7306788;19;159860;-35
2021/12/17 10:23:30;;;;;;;24.55;6.32;;;;;;;25.44;37.78;101411.31;7311222;19;128986;-36
2021/12/17 10:25:56;;;;;;;39.45;8.88;;;;;;;25.32;37.69;101420.16;7309254;19;129765;-34
2021/12/17 10:28:21;;;;;;;23.20;7.33;;;;;;;25.31;36.72;101418.47;7312522;19;130880;-41
2021/12/17 10:30:49;;;;;;;26.67;6.83;;;;;;;25.14;36.56;101414.50;7314055;19;129291;-36
2021/12/17 10:33:18;;;;;;;14.43;5.25;;;;;;;25.31;36.39;101414.06;7312976;19;129263;-31
2021/12/17 10:35:47;;;;;;;25.63;6.95;;;;;;;25.19;36.40;101419.41;7309589;19;129226;-36
2021/12/17 10:38:16;;;;;;;16.10;4.97;;;;;;;25.37;36.00;101416.22;7314904;19;130547;-34
2021/12/17 10:40:55;;;;;;;24.83;6.68;;;;;;;25.41;35.95;101419.47;7310928;19;129458;-32
2021/12/17 10:48:49;;;;;;;20.38;6.18;;;;;;;25.43;35.77;101422.81;7313815;19;129660;-38
2021/12/17 10:54:19;;;;;;;18.33;5.38;;;;;;;25.10;35.27;101413.09;7312154;19;129772;-32
2021/12/17 10:56:46;;;;;;;18.90;5.67;;;;;;;25.27;34.42;101417.88;7307919;19;129533;-34
2021/12/17 10:59:22;;;;;;;15.10;5.35;;;;;;;25.01;35.15;101420.84;7308899;19;129503;-36
2021/12/17 11:01:54;;;;;;;26.80;7.63;;;;;;;25.01;35.57;101426.09;7307706;19;130392;-34
2021/12/17 11:04:33;;;;;;;14.90;5.25;;;;;;;25.49;34.78;101438.13;7310099;19;130220;-33
2021/12/17 11:07:00;;;;;;;19.58;5.30;;;;;;;25.47;34.77;101425.09;7308086;19;129181;-35
2021/12/17 11:10:00;;;;;;;20.02;5.85;;;;;;;25.46;36.25;101422.56;7310181;19;129725;-36
2021/12/17 11:12:31;;;;;;;21.05;5.13;;;;;;;26.11;35.69;101419.97;7309549;19;129479;-31
2021/12/17 11:15:27;;;;;;;19.85;5.50;;;;;;;26.38;35.84;101421.19;7308035;19;128857;-35
2021/12/17 11:18:00;;;;;;;29.27;5.20;;;;;;;26.55;35.36;101425.06;7310063;19;129581;-34
2021/12/17 11:20:37;;;;;;;25.67;5.40;;;;;;;26.68;34.93;101416.03;7309350;19;130567;-32
2021/12/17 11:23:07;;;;;;;16.65;4.65;;;;;;;26.78;35.37;101414.31;7310710;19;130991;-36
2021/12/17 11:25:35;;;;;;;26.60;5.53;;;;;;;26.82;35.24;101423.63;7308042;19;129095;-37
2021/12/17 11:28:00;;;;;;;19.70;4.85;;;;;;;26.93;35.23;101420.94;7308530;19;130190;-32
2021/12/17 11:30:32;;;;;;;31.53;6.57;;;;;;;26.92;35.93;101419.22;7307522;19;129958;-36
2021/12/17 11:33:01;;;;;;;26.48;5.90;;;;;;;27.04;36.28;101417.34;7310211;19;130794;-37
2021/12/17 11:35:27;;;;;;;24.02;5.90;;;;;;;27.11;36.75;101409.75;7306676;19;130038;-37
2021/12/17 11:37:56;;;;;;;34.22;6.22;;;;;;;27.18;36.77;101413.53;7311021;19;129430;-36
2021/12/17 11:40:29;;;;;;;17.02;4.25;;;;;;;27.22;36.87;101407.03;7306152;19;129530;-36
2021/12/17 11:43:23;;;;;;;31.05;6.07;;;;;;;27.26;37.05;101409.28;7308649;19;129744;-35
2021/12/17 11:46:00;;;;;;;41.40;7.05;;;;;;;27.32;37.86;101403.47;7303253;19;129434;-36
2021/12/17 11:48:26;;;;;;;22.98;4.55;;;;;;;27.44;37.60;101405.06;7309801;19;129169;-36
2021/12/17 11:51:12;;;;;;;48.97;9.48;;;;;;;27.50;37.86;101398.41;7306467;19;129787;-38
2021/12/17 11:53:59;;;;;;;20.52;5.07;;;;;;;27.50;37.79;101403.69;7307320;19;131238;-38
2021/12/17 11:56:41;;;;;;;31.37;5.90;;;;;;;27.50;38.20;101408.97;7302640;19;129501;-38
2021/12/17 11:59:26;;;;;;;23.08;5.28;;;;;;;27.55;37.58;101389.09;7307340;19;129246;-37
2021/12/17 12:02:01;;;;;;;32.63;6.07;;;;;;;27.61;37.94;101390.38;7306183;19;130285;-38
2021/12/17 12:04:32;;;;;;;17.65;4.18;;;;;;;27.72;37.62;101398.19;7306468;19;130945;-37
2021/12/17 12:07:04;;;;;;;26.50;5.30;;;;;;;27.75;38.33;101395.28;7307813;19;129654;-29
2021/12/17 12:10:04;;;;;;;30.90;6.32;;;;;;;27.78;37.78;101397.66;7302170;19;129261;-33
2021/12/17 12:12:45;;;;;;;36.90;7.15;;;;;;;27.73;38.03;101373.44;7306692;19;129207;-36
2021/12/17 12:15:16;;;;;;;19.25;4.70;;;;;;;27.91;38.00;101385.03;7304906;19;130462;-38
2021/12/17 12:17:57;;;;;;;15.15;3.83;;;;;;;28.01;37.60;101383.25;7307302;19;129252;-32
2021/12/17 12:23:39;;;;;;;20.63;4.57;;;;;;;28.06;38.09;101381.84;7305389;19;158453;-38
2021/12/17 12:26:04;;;;;;;34.33;8.02;;;;;;;28.01;38.42;101383.25;7291620;19;129676;-37
2021/12/17 12:28:45;;;;;;;26.97;5.77;;;;;;;28.04;38.30;101382.97;7304811;19;129973;-36
2021/12/17 12:31:17;;;;;;;30.42;6.85;;;;;;;28.10;38.27;101387.69;7295843;19;132298;-32
2021/12/17 12:34:00;;;;;;;40.42;8.73;;;;;;;28.04;38.26;101383.81;7296297;19;130886;-37
2021/12/17 12:36:47;;;;;;;48.17;9.27;;;;;;;27.97;38.55;101381.84;7296094;19;130888;-36
2021/12/17 12:39:46;;;;;;;25.35;5.68;;;;;;;27.93;39.08;101380.47;7297598;19;129913;-36
2021/12/17 12:42:20;;;;;;;36.78;7.47;;;;;;;27.93;39.21;101375.97;7293356;19;129641;-40
2021/12/17 12:44:46;;;;;;;38.83;7.07;;;;;;;27.93;38.76;101377.81;7295315;19;131692;-40
2021/12/17 12:47:34;;;;;;;15.90;3.90;;;;;;;27.85;39.01;101373.16;7305702;19;130871;-39
2021/12/17 12:50:03;;;;;;;32.25;6.07;;;;;;;27.81;39.07;101370.94;7304531;19;129165;-38
2021/12/17 12:52:36;;;;;;;23.83;4.93;;;;;;;27.69;37.61;101364.94;7307523;19;129206;-34
2021/12/17 12:55:20;;;;;;;34.83;6.38;;;;;;;27.51;37.94;101376.28;7301489;19;131114;-38
2021/12/17 12:57:49;;;;;;;28.05;5.90;;;;;;;27.46;37.26;101381.16;7304103;19;129880;-40
2021/12/17 13:00:18;;;;;;;17.23;4.40;;;;;;;27.38;37.60;101360.69;7305860;19;129531;-36
2021/12/17 13:02:44;;;;;;;30.95;6.32;;;;;;;27.40;37.38;101360.56;7301455;19;144636;-32
2021/12/17 13:05:11;;;;;;;33.95;6.30;;;;;;;27.41;37.06;101356.94;7301129;19;129982;-35
2021/12/17 13:07:36;;;;;;;;;;;;;;;27.35;37.27;101362.75;7305537;19;129598;-38
2021/12/17 13:10:13;;;;;;;25.20;5.73;;;;;;;27.38;36.75;101357.22;7303742;19;129427;-34
2021/12/17 13:12:40;;;;;;;33.00;5.85;;;;;;;27.43;37.07;101352.34;7306299;19;131547;-36
2021/12/17 13:16:01;;;;;;;29.90;5.82;;;;;;;27.50;38.20;101351.66;7302752;19;130818;-35
2021/12/17 13:21:20;;;;;;;38.80;7.00;;;;;;;27.66;38.20;101357.28;7305091;19;130986;-30
2021/12/17 13:23:54;;;;;;;27.92;6.43;;;;;;;27.60;38.08;101341.16;7307637;19;129416;-34
2021/12/17 13:26:26;;;;;;;21.85;4.13;;;;;;;27.71;38.29;101351.59;7310468;19;131822;-34
2021/12/17 13:28:55;;;;;;;30.33;5.35;;;;;;;27.66;38.76;101351.16;7311694;19;131258;-40
2021/12/17 13:31:51;;;;;;;15.60;3.40;;;;;;;27.70;39.00;101347.28;7312059;19;129873;-35
2021/12/17 13:34:30;;;;;;;15.50;3.38;;;;;;;27.72;39.40;101356.72;7310416;19;130153;-34
2021/12/17 13:36:58;;;;;;;32.35;5.63;;;;;;;27.73;38.64;101353.09;7310902;19;129737;-35
2021/12/17 13:39:27;;;;;;;16.77;3.67;;;;;;;27.79;39.08;101363.16;7313624;19;129506;-36
2021/12/17 13:41:52;;;;;;;25.38;4.55;;;;;;;27.77;39.32;101359.78;7311163;19;129209;-36
2021/12/17 13:44:27;;;;;;;35.20;6.60;;;;;;;27.78;39.22;101355.34;7309219;19;129528;-35
2021/12/17 13:47:06;;;;;;;34.83;5.57;;;;;;;27.81;39.43;101360.38;7312841;19;129219;-35
2021/12/17 13:49:31;;;;;;;21.17;4.28;;;;;;;27.79;39.41;101355.22;7312328;19;129380;-33
2021/12/17 13:51:57;;;;;;;30.73;5.33;;;;;;;27.83;39.77;101358.44;7310080;19;129023;-35
2021/12/17 13:54:22;;;;;;;20.13;4.33;;;;;;;27.86;39.89;101360.78;7310685;19;154753;-36
2021/12/17 13:56:58;;;;;;;27.73;5.23;;;;;;;27.86;39.28;101358.16;7307460;19;129670;-37
2021/12/17 13:59:28;;;;;;;25.17;4.55;;;;;;;27.88;39.22;101353.56;7311927;19;130856;-38
2021/12/17 14:01:54;;;;;;;36.53;5.72;;;;;;;27.83;40.11;101359.25;7308937;19;129075;-34
2021/12/17 14:04:19;;;;;;;18.53;3.63;;;;;;;27.86;39.74;101363.44;7309308;19;153951;-33
2021/12/17 14:06:52;;;;;;;22.37;4.73;;;;;;;27.84;37.25;101365.38;7307145;19;129836;-36
2021/12/17 14:09:20;;;;;;;20.92;4.55;;;;;;;27.76;36.55;101362.59;7311963;19;130896;-34
2021/12/17 14:11:46;;;;;;;30.45;4.85;;;;;;;27.58;37.27;101364.22;7311974;19;129350;-34